sensor_id;sensor_type;location;lat;lon;timestamp;P1;durP1;ratioP1;P2;durP2;ratioP2
76582;SDS011;65462;52.148;7.940;2023-07-31T00:00:59;443.33;;;364.70;;
76582;SDS011;65462;52.148;7.940;2023-07-31T00:03:24;438.65;;;343.27;;
76582;SDS011;65462;52.148;7.940;2023-07-31T00:05:49;444.30;;;361.37;;
76582;SDS011;65462;52.148;7.940;2023-07-31T00:08:14;442.08;;;352.98;;
76582;SDS011;65462;52.148;7.940;2023-07-31T00:10:40;436.83;;;337.30;;
76582;SDS011;65462;52.148;7.940;2023-07-31T00:13:05;440.83;;;345.93;;
76582;SDS011;65462;52.148;7.940;2023-07-31T00:15:30;440.20;;;341.77;;
76582;SDS011;65462;52.148;7.940;2023-07-31T00:17:55;433.30;;;329.13;;
76582;SDS011;65462;52.148;7.940;2023-07-31T00:20:21;442.20;;;349.27;;
76582;SDS011;65462;52.148;7.940;2023-07-31T00:22:46;434.33;;;326.30;;
76582;SDS011;65462;52.148;7.940;2023-07-31T00:25:11;432.97;;;325.77;;
76582;SDS011;65462;52.148;7.940;2023-07-31T00:27:37;436.87;;;334.13;;
76582;SDS011;65462;52.148;7.940;2023-07-31T00:30:05;436.97;;;337.20;;
76582;SDS011;65462;52.148;7.940;2023-07-31T00:32:31;434.03;;;324.67;;
76582;SDS011;65462;52.148;7.940;2023-07-31T00:34:56;435.37;;;329.93;;
76582;SDS011;65462;52.148;7.940;2023-07-31T00:37:21;432.70;;;319.03;;
76582;SDS011;65462;52.148;7.940;2023-07-31T00:39:46;438.53;;;339.27;;
76582;SDS011;65462;52.148;7.940;2023-07-31T00:42:12;432.57;;;323.20;;
76582;SDS011;65462;52.148;7.940;2023-07-31T00:44:37;434.50;;;323.23;;
76582;SDS011;65462;52.148;7.940;2023-07-31T00:47:02;430.47;;;315.60;;
76582;SDS011;65462;52.148;7.940;2023-07-31T00:49:28;436.07;;;328.90;;
76582;SDS011;65462;52.148;7.940;2023-07-31T00:51:53;432.93;;;320.50;;
76582;SDS011;65462;52.148;7.940;2023-07-31T00:54:19;433.50;;;325.40;;
76582;SDS011;65462;52.148;7.940;2023-07-31T00:56:45;433.87;;;326.80;;
76582;SDS011;65462;52.148;7.940;2023-07-31T00:59:11;432.30;;;320.37;;
76582;SDS011;65462;52.148;7.940;2023-07-31T01:01:37;433.13;;;325.67;;
76582;SDS011;65462;52.148;7.940;2023-07-31T01:04:02;435.47;;;324.43;;
76582;SDS011;65462;52.148;7.940;2023-07-31T01:06:36;434.20;;;321.73;;
76582;SDS011;65462;52.148;7.940;2023-07-31T01:09:09;432.63;;;320.53;;
76582;SDS011;65462;52.148;7.940;2023-07-31T01:11:48;432.87;;;319.50;;
76582;SDS011;65462;52.148;7.940;2023-07-31T01:14:17;431.53;;;315.53;;
76582;SDS011;65462;52.148;7.940;2023-07-31T01:16:43;436.10;;;328.40;;
76582;SDS011;65462;52.148;7.940;2023-07-31T01:19:08;428.53;;;306.87;;
76582;SDS011;65462;52.148;7.940;2023-07-31T01:32:17;444.87;;;346.77;;
76582;SDS011;65462;52.148;7.940;2023-07-31T01:34:43;449.23;;;366.00;;
76582;SDS011;65462;52.148;7.940;2023-07-31T01:37:09;441.13;;;349.47;;
76582;SDS011;65462;52.148;7.940;2023-07-31T01:39:34;446.23;;;359.70;;
76582;SDS011;65462;52.148;7.940;2023-07-31T01:41:59;452.40;;;368.43;;
76582;SDS011;65462;52.148;7.940;2023-07-31T01:44:25;447.60;;;366.87;;
76582;SDS011;65462;52.148;7.940;2023-07-31T01:46:50;445.30;;;362.23;;
76582;SDS011;65462;52.148;7.940;2023-07-31T01:49:15;435.50;;;329.40;;
76582;SDS011;65462;52.148;7.940;2023-07-31T01:51:41;434.57;;;329.67;;
76582;SDS011;65462;52.148;7.940;2023-07-31T01:54:06;432.00;;;322.90;;
76582;SDS011;65462;52.148;7.940;2023-07-31T01:56:31;430.10;;;319.23;;
76582;SDS011;65462;52.148;7.940;2023-07-31T01:58:56;431.60;;;327.70;;
76582;SDS011;65462;52.148;7.940;2023-07-31T02:01:22;428.83;;;313.27;;
76582;SDS011;65462;52.148;7.940;2023-07-31T02:03:47;425.07;;;303.63;;
76582;SDS011;65462;52.148;7.940;2023-07-31T02:06:12;425.13;;;299.67;;
76582;SDS011;65462;52.148;7.940;2023-07-31T02:08:37;432.87;;;326.57;;
76582;SDS011;65462;52.148;7.940;2023-07-31T02:11:03;428.27;;;308.10;;
76582;SDS011;65462;52.148;7.940;2023-07-31T02:13:28;430.03;;;319.17;;
76582;SDS011;65462;52.148;7.940;2023-07-31T02:15:54;430.23;;;317.97;;
76582;SDS011;65462;52.148;7.940;2023-07-31T02:18:19;432.87;;;321.97;;
76582;SDS011;65462;52.148;7.940;2023-07-31T02:20:48;431.30;;;322.27;;
76582;SDS011;65462;52.148;7.940;2023-07-31T02:23:17;425.97;;;305.43;;
76582;SDS011;65462;52.148;7.940;2023-07-31T02:25:44;430.30;;;319.43;;
76582;SDS011;65462;52.148;7.940;2023-07-31T02:28:09;427.63;;;309.33;;
76582;SDS011;65462;52.148;7.940;2023-07-31T02:30:35;430.63;;;315.83;;
76582;SDS011;65462;52.148;7.940;2023-07-31T02:33:00;428.87;;;311.47;;
76582;SDS011;65462;52.148;7.940;2023-07-31T02:35:25;429.10;;;310.67;;
76582;SDS011;65462;52.148;7.940;2023-07-31T02:37:51;426.43;;;308.23;;
76582;SDS011;65462;52.148;7.940;2023-07-31T02:40:16;428.20;;;306.57;;
76582;SDS011;65462;52.148;7.940;2023-07-31T02:42:41;430.83;;;320.30;;
76582;SDS011;65462;52.148;7.940;2023-07-31T02:45:07;429.67;;;310.73;;
76582;SDS011;65462;52.148;7.940;2023-07-31T02:47:32;425.27;;;297.77;;
76582;SDS011;65462;52.148;7.940;2023-07-31T02:49:58;429.93;;;315.83;;
76582;SDS011;65462;52.148;7.940;2023-07-31T02:52:24;427.53;;;306.13;;
76582;SDS011;65462;52.148;7.940;2023-07-31T02:54:50;429.87;;;314.07;;
76582;SDS011;65462;52.148;7.940;2023-07-31T02:57:15;429.87;;;310.50;;
76582;SDS011;65462;52.148;7.940;2023-07-31T02:59:41;428.93;;;310.27;;
76582;SDS011;65462;52.148;7.940;2023-07-31T03:02:06;421.37;;;289.03;;
76582;SDS011;65462;52.148;7.940;2023-07-31T03:04:31;429.63;;;311.53;;
76582;SDS011;65462;52.148;7.940;2023-07-31T03:06:57;428.10;;;308.63;;
76582;SDS011;65462;52.148;7.940;2023-07-31T03:09:22;427.57;;;304.73;;
76582;SDS011;65462;52.148;7.940;2023-07-31T03:11:47;429.13;;;306.57;;
76582;SDS011;65462;52.148;7.940;2023-07-31T03:14:13;425.87;;;300.57;;
76582;SDS011;65462;52.148;7.940;2023-07-31T03:16:38;427.77;;;306.63;;
76582;SDS011;65462;52.148;7.940;2023-07-31T03:19:03;424.53;;;298.47;;
76582;SDS011;65462;52.148;7.940;2023-07-31T03:21:28;422.30;;;284.63;;
76582;SDS011;65462;52.148;7.940;2023-07-31T03:23:54;423.33;;;291.43;;
76582;SDS011;65462;52.148;7.940;2023-07-31T03:26:19;425.67;;;293.57;;
76582;SDS011;65462;52.148;7.940;2023-07-31T03:28:44;432.53;;;305.80;;
76582;SDS011;65462;52.148;7.940;2023-07-31T03:31:09;427.13;;;297.20;;
76582;SDS011;65462;52.148;7.940;2023-07-31T03:33:36;439.13;;;330.60;;
76582;SDS011;65462;52.148;7.940;2023-07-31T03:36:01;436.00;;;317.20;;
76582;SDS011;65462;52.148;7.940;2023-07-31T06:35:18;430.40;;;300.70;;
